Аэропорт: Белгород . Белгород

ICAO: UUOB

METAR:
2020-06-04 05:00:00
UUOB 040500Z 23003MPS 9999 BKN040 14/10 Q1007 R29/010060 NOSIG
METAR:
Информация по данной станции не доступна